sensor_id;sensor_type;location;lat;lon;timestamp;P1;durP1;ratioP1;P2;durP2;ratioP2
20589;SDS011;10453;50.810;12.540;2022-08-14T00:01:43;22.17;;;19.95;;
20589;SDS011;10453;50.810;12.540;2022-08-14T00:06:11;21.13;;;18.90;;
20589;SDS011;10453;50.810;12.540;2022-08-14T00:10:41;21.35;;;19.35;;
20589;SDS011;10453;50.810;12.540;2022-08-14T00:15:11;21.15;;;19.13;;
20589;SDS011;10453;50.810;12.540;2022-08-14T00:19:45;22.60;;;20.40;;
20589;SDS011;10453;50.810;12.540;2022-08-14T00:24:04;23.02;;;20.73;;
20589;SDS011;10453;50.810;12.540;2022-08-14T00:28:25;20.17;;;18.20;;
20589;SDS011;10453;50.810;12.540;2022-08-14T00:32:48;20.60;;;18.50;;
20589;SDS011;10453;50.810;12.540;2022-08-14T00:37:12;20.92;;;18.90;;
20589;SDS011;10453;50.810;12.540;2022-08-14T00:41:30;21.17;;;19.15;;
20589;SDS011;10453;50.810;12.540;2022-08-14T00:45:49;21.83;;;19.65;;
20589;SDS011;10453;50.810;12.540;2022-08-14T00:50:09;21.83;;;19.50;;
20589;SDS011;10453;50.810;12.540;2022-08-14T00:54:33;21.48;;;19.33;;
20589;SDS011;10453;50.810;12.540;2022-08-14T00:58:54;22.23;;;20.02;;
20589;SDS011;10453;50.810;12.540;2022-08-14T01:03:14;23.42;;;20.92;;
20589;SDS011;10453;50.810;12.540;2022-08-14T01:07:32;23.10;;;20.87;;
20589;SDS011;10453;50.810;12.540;2022-08-14T01:12:09;21.85;;;19.85;;
20589;SDS011;10453;50.810;12.540;2022-08-14T01:16:27;21.47;;;19.30;;
20589;SDS011;10453;50.810;12.540;2022-08-14T01:20:47;20.30;;;18.38;;
20589;SDS011;10453;50.810;12.540;2022-08-14T01:25:19;20.58;;;18.35;;
20589;SDS011;10453;50.810;12.540;2022-08-14T01:29:38;21.08;;;18.27;;
20589;SDS011;10453;50.810;12.540;2022-08-14T01:34:17;20.83;;;18.17;;
20589;SDS011;10453;50.810;12.540;2022-08-14T01:38:56;21.38;;;19.15;;
20589;SDS011;10453;50.810;12.540;2022-08-14T01:43:13;21.25;;;19.20;;
20589;SDS011;10453;50.810;12.540;2022-08-14T01:47:37;21.95;;;19.92;;
20589;SDS011;10453;50.810;12.540;2022-08-14T01:51:55;21.85;;;19.65;;
20589;SDS011;10453;50.810;12.540;2022-08-14T01:56:15;22.48;;;20.38;;
20589;SDS011;10453;50.810;12.540;2022-08-14T02:00:36;22.15;;;20.05;;
20589;SDS011;10453;50.810;12.540;2022-08-14T02:04:55;23.70;;;21.40;;
20589;SDS011;10453;50.810;12.540;2022-08-14T02:09:13;25.40;;;22.90;;
20589;SDS011;10453;50.810;12.540;2022-08-14T02:13:38;25.77;;;23.25;;
20589;SDS011;10453;50.810;12.540;2022-08-14T02:17:58;25.73;;;23.23;;
20589;SDS011;10453;50.810;12.540;2022-08-14T02:22:18;27.58;;;24.67;;
20589;SDS011;10453;50.810;12.540;2022-08-14T02:26:49;30.52;;;26.02;;
20589;SDS011;10453;50.810;12.540;2022-08-14T02:31:28;27.52;;;24.88;;
20589;SDS011;10453;50.810;12.540;2022-08-14T02:36:00;31.73;;;27.33;;
20589;SDS011;10453;50.810;12.540;2022-08-14T02:44:57;29.75;;;26.35;;
20589;SDS011;10453;50.810;12.540;2022-08-14T02:49:16;37.33;;;29.03;;
20589;SDS011;10453;50.810;12.540;2022-08-14T02:53:42;30.83;;;26.83;;
20589;SDS011;10453;50.810;12.540;2022-08-14T02:58:02;28.75;;;25.88;;
20589;SDS011;10453;50.810;12.540;2022-08-14T03:02:21;34.33;;;28.05;;
20589;SDS011;10453;50.810;12.540;2022-08-14T03:06:58;28.38;;;25.55;;
20589;SDS011;10453;50.810;12.540;2022-08-14T03:11:24;25.90;;;23.35;;
20589;SDS011;10453;50.810;12.540;2022-08-14T03:15:50;27.33;;;24.42;;
20589;SDS011;10453;50.810;12.540;2022-08-14T03:20:12;30.13;;;26.90;;
20589;SDS011;10453;50.810;12.540;2022-08-14T03:24:30;29.80;;;26.63;;
20589;SDS011;10453;50.810;12.540;2022-08-14T03:28:49;29.70;;;26.60;;
20589;SDS011;10453;50.810;12.540;2022-08-14T03:33:09;26.70;;;23.90;;
20589;SDS011;10453;50.810;12.540;2022-08-14T03:37:27;28.25;;;25.10;;
20589;SDS011;10453;50.810;12.540;2022-08-14T03:42:05;26.77;;;24.02;;
20589;SDS011;10453;50.810;12.540;2022-08-14T03:46:36;35.63;;;25.83;;
20589;SDS011;10453;50.810;12.540;2022-08-14T03:51:12;26.00;;;23.40;;
20589;SDS011;10453;50.810;12.540;2022-08-14T03:55:30;33.90;;;27.15;;
20589;SDS011;10453;50.810;12.540;2022-08-14T03:59:47;29.52;;;25.98;;
20589;SDS011;10453;50.810;12.540;2022-08-14T04:04:04;27.55;;;24.65;;
20589;SDS011;10453;50.810;12.540;2022-08-14T04:12:47;30.05;;;25.90;;
20589;SDS011;10453;50.810;12.540;2022-08-14T04:17:07;27.00;;;24.10;;
20589;SDS011;10453;50.810;12.540;2022-08-14T04:21:26;27.52;;;24.65;;
20589;SDS011;10453;50.810;12.540;2022-08-14T04:25:46;25.88;;;22.95;;
20589;SDS011;10453;50.810;12.540;2022-08-14T04:30:04;25.73;;;23.10;;
20589;SDS011;10453;50.810;12.540;2022-08-14T04:34:22;28.63;;;25.58;;
20589;SDS011;10453;50.810;12.540;2022-08-14T04:38:43;25.45;;;22.60;;
20589;SDS011;10453;50.810;12.540;2022-08-14T04:43:19;29.98;;;25.45;;
20589;SDS011;10453;50.810;12.540;2022-08-14T04:47:55;28.13;;;25.08;;
20589;SDS011;10453;50.810;12.540;2022-08-14T04:52:50;28.33;;;25.33;;
20589;SDS011;10453;50.810;12.540;2022-08-14T05:01:30;27.58;;;24.67;;
20589;SDS011;10453;50.810;12.540;2022-08-14T05:05:57;26.83;;;24.08;;
20589;SDS011;10453;50.810;12.540;2022-08-14T05:10:15;26.10;;;23.40;;
20589;SDS011;10453;50.810;12.540;2022-08-14T05:14:40;27.52;;;24.85;;
20589;SDS011;10453;50.810;12.540;2022-08-14T05:19:08;27.52;;;24.65;;
20589;SDS011;10453;50.810;12.540;2022-08-14T05:23:42;25.42;;;23.00;;
20589;SDS011;10453;50.810;12.540;2022-08-14T05:28:08;26.83;;;24.13;;
20589;SDS011;10453;50.810;12.540;2022-08-14T05:32:32;28.90;;;25.90;;
20589;SDS011;10453;50.810;12.540;2022-08-14T05:36:50;28.45;;;25.60;;
20589;SDS011;10453;50.810;12.540;2022-08-14T05:41:18;35.33;;;31.87;;
20589;SDS011;10453;50.810;12.540;2022-08-14T05:45:37;31.48;;;28.23;;
20589;SDS011;10453;50.810;12.540;2022-08-14T05:49:56;32.40;;;29.30;;
20589;SDS011;10453;50.810;12.540;2022-08-14T05:54:14;36.55;;;32.85;;
20589;SDS011;10453;50.810;12.540;2022-08-14T05:58:43;32.22;;;28.92;;
20589;SDS011;10453;50.810;12.540;2022-08-14T06:03:01;29.70;;;26.75;;
20589;SDS011;10453;50.810;12.540;2022-08-14T06:07:22;27.38;;;24.50;;
20589;SDS011;10453;50.810;12.540;2022-08-14T06:11:39;30.23;;;27.13;;
20589;SDS011;10453;50.810;12.540;2022-08-14T06:15:58;26.73;;;23.10;;
20589;SDS011;10453;50.810;12.540;2022-08-14T06:20:16;25.50;;;22.77;;
20589;SDS011;10453;50.810;12.540;2022-08-14T06:24:37;25.15;;;22.63;;
20589;SDS011;10453;50.810;12.540;2022-08-14T06:28:59;23.83;;;21.52;;
20589;SDS011;10453;50.810;12.540;2022-08-14T06:33:18;24.77;;;22.47;;
20589;SDS011;10453;50.810;12.540;2022-08-14T06:42:15;23.13;;;20.73;;
20589;SDS011;10453;50.810;12.540;2022-08-14T06:46:48;22.52;;;20.23;;
20589;SDS011;10453;50.810;12.540;2022-08-14T06:51:05;23.05;;;20.75;;
20589;SDS011;10453;50.810;12.540;2022-08-14T06:55:23;20.88;;;18.98;;
20589;SDS011;10453;50.810;12.540;2022-08-14T06:59:44;21.65;;;19.55;;
20589;SDS011;10453;50.810;12.540;2022-08-14T07:04:02;20.25;;;18.35;;
20589;SDS011;10453;50.810;12.540;2022-08-14T07:08:42;20.10;;;18.40;;
20589;SDS011;10453;50.810;12.540;2022-08-14T07:13:03;22.95;;;20.83;;
20589;SDS011;10453;50.810;12.540;2022-08-14T07:17:24;21.13;;;19.23;;
20589;SDS011;10453;50.810;12.540;2022-08-14T07:21:43;21.33;;;18.55;;
20589;SDS011;10453;50.810;12.540;2022-08-14T07:26:01;19.70;;;17.90;;
20589;SDS011;10453;50.810;12.540;2022-08-14T07:34:50;20.10;;;18.25;;
20589;SDS011;10453;50.810;12.540;2022-08-14T07:39:08;18.35;;;16.75;;
20589;SDS011;10453;50.810;12.540;2022-08-14T07:43:29;18.02;;;16.42;;
20589;SDS011;10453;50.810;12.540;2022-08-14T07:47:46;17.70;;;16.10;;
20589;SDS011;10453;50.810;12.540;2022-08-14T07:52:03;17.00;;;15.60;;
20589;SDS011;10453;50.810;12.540;2022-08-14T07:56:23;17.83;;;16.38;;
20589;SDS011;10453;50.810;12.540;2022-08-14T08:01:01;17.23;;;15.77;;
20589;SDS011;10453;50.810;12.540;2022-08-14T08:05:19;15.52;;;14.07;;
20589;SDS011;10453;50.810;12.540;2022-08-14T08:09:41;14.20;;;12.90;;
20589;SDS011;10453;50.810;12.540;2022-08-14T08:18:33;11.30;;;10.25;;
20589;SDS011;10453;50.810;12.540;2022-08-14T08:27:21;11.05;;;10.02;;
20589;SDS011;10453;50.810;12.540;2022-08-14T08:31:47;11.65;;;10.32;;
20589;SDS011;10453;50.810;12.540;2022-08-14T08:36:08;11.95;;;10.85;;
20589;SDS011;10453;50.810;12.540;2022-08-14T08:40:35;11.07;;;10.02;;
20589;SDS011;10453;50.810;12.540;2022-08-14T08:45:16;11.40;;;10.40;;
20589;SDS011;10453;50.810;12.540;2022-08-14T08:49:35;11.55;;;10.27;;
20589;SDS011;10453;50.810;12.540;2022-08-14T08:54:06;10.65;;;9.68;;
20589;SDS011;10453;50.810;12.540;2022-08-14T08:58:36;10.25;;;9.35;;
20589;SDS011;10453;50.810;12.540;2022-08-14T09:02:54;10.65;;;9.52;;
20589;SDS011;10453;50.810;12.540;2022-08-14T09:07:26;10.45;;;9.48;;
20589;SDS011;10453;50.810;12.540;2022-08-14T09:11:43;11.98;;;9.80;;
20589;SDS011;10453;50.810;12.540;2022-08-14T09:16:03;9.52;;;8.63;;
20589;SDS011;10453;50.810;12.540;2022-08-14T09:20:36;10.05;;;8.90;;
20589;SDS011;10453;50.810;12.540;2022-08-14T09:24:58;9.45;;;8.63;;
20589;SDS011;10453;50.810;12.540;2022-08-14T09:47:52;8.07;;;7.38;;
20589;SDS011;10453;50.810;12.540;2022-08-14T09:52:13;8.35;;;7.65;;
20589;SDS011;10453;50.810;12.540;2022-08-14T09:56:50;7.72;;;7.10;;
20589;SDS011;10453;50.810;12.540;2022-08-14T10:01:16;7.95;;;7.00;;
20589;SDS011;10453;50.810;12.540;2022-08-14T10:05:35;7.57;;;6.80;;
20589;SDS011;10453;50.810;12.540;2022-08-14T10:09:55;7.35;;;6.80;;
20589;SDS011;10453;50.810;12.540;2022-08-14T10:14:19;8.05;;;6.80;;
20589;SDS011;10453;50.810;12.540;2022-08-14T10:19:04;7.60;;;6.90;;
20589;SDS011;10453;50.810;12.540;2022-08-14T10:23:26;7.05;;;6.35;;
20589;SDS011;10453;50.810;12.540;2022-08-14T10:27:57;9.88;;;6.63;;
20589;SDS011;10453;50.810;12.540;2022-08-14T10:32:14;5.68;;;5.07;;
20589;SDS011;10453;50.810;12.540;2022-08-14T10:36:44;5.38;;;4.88;;
20589;SDS011;10453;50.810;12.540;2022-08-14T10:41:18;5.53;;;5.03;;
20589;SDS011;10453;50.810;12.540;2022-08-14T10:45:35;5.73;;;5.23;;
20589;SDS011;10453;50.810;12.540;2022-08-14T10:50:07;5.72;;;5.22;;
20589;SDS011;10453;50.810;12.540;2022-08-14T10:54:31;6.43;;;5.80;;
20589;SDS011;10453;50.810;12.540;2022-08-14T10:59:04;6.87;;;5.37;;
20589;SDS011;10453;50.810;12.540;2022-08-14T11:03:24;9.05;;;5.93;;
20589;SDS011;10453;50.810;12.540;2022-08-14T11:08:01;5.47;;;4.97;;
20589;SDS011;10453;50.810;12.540;2022-08-14T11:12:38;5.82;;;5.20;;
20589;SDS011;10453;50.810;12.540;2022-08-14T11:17:03;5.72;;;5.03;;
20589;SDS011;10453;50.810;12.540;2022-08-14T11:21:24;5.53;;;5.10;;
20589;SDS011;10453;50.810;12.540;2022-08-14T11:25:49;6.00;;;5.38;;
20589;SDS011;10453;50.810;12.540;2022-08-14T11:30:10;5.93;;;4.80;;
20589;SDS011;10453;50.810;12.540;2022-08-14T11:34:50;5.63;;;5.00;;
20589;SDS011;10453;50.810;12.540;2022-08-14T11:39:08;5.75;;;4.90;;
20589;SDS011;10453;50.810;12.540;2022-08-14T11:43:49;7.45;;;4.85;;
20589;SDS011;10453;50.810;12.540;2022-08-14T11:57:18;5.43;;;4.78;;
20589;SDS011;10453;50.810;12.540;2022-08-14T12:01:38;6.20;;;5.03;;
20589;SDS011;10453;50.810;12.540;2022-08-14T12:06:03;6.00;;;5.07;;
20589;SDS011;10453;50.810;12.540;2022-08-14T12:10:42;6.10;;;4.60;;
20589;SDS011;10453;50.810;12.540;2022-08-14T12:15:02;8.15;;;4.57;;
20589;SDS011;10453;50.810;12.540;2022-08-14T12:19:22;4.22;;;3.83;;
20589;SDS011;10453;50.810;12.540;2022-08-14T12:23:41;5.75;;;4.40;;
20589;SDS011;10453;50.810;12.540;2022-08-14T12:32:21;4.55;;;4.10;;
20589;SDS011;10453;50.810;12.540;2022-08-14T12:36:38;5.65;;;4.45;;
20589;SDS011;10453;50.810;12.540;2022-08-14T12:40:57;5.57;;;4.43;;
20589;SDS011;10453;50.810;12.540;2022-08-14T12:45:27;5.38;;;4.00;;
20589;SDS011;10453;50.810;12.540;2022-08-14T12:49:49;5.85;;;4.20;;
20589;SDS011;10453;50.810;12.540;2022-08-14T12:54:17;5.07;;;4.55;;
20589;SDS011;10453;50.810;12.540;2022-08-14T12:58:51;4.80;;;4.30;;
20589;SDS011;10453;50.810;12.540;2022-08-14T13:03:25;4.40;;;4.03;;
20589;SDS011;10453;50.810;12.540;2022-08-14T13:07:43;5.53;;;4.40;;
20589;SDS011;10453;50.810;12.540;2022-08-14T13:12:02;4.63;;;4.32;;
20589;SDS011;10453;50.810;12.540;2022-08-14T13:16:41;4.72;;;4.32;;
20589;SDS011;10453;50.810;12.540;2022-08-14T13:20:59;4.55;;;3.85;;
20589;SDS011;10453;50.810;12.540;2022-08-14T13:25:19;4.20;;;3.90;;
20589;SDS011;10453;50.810;12.540;2022-08-14T13:29:40;5.30;;;3.88;;
20589;SDS011;10453;50.810;12.540;2022-08-14T13:34:02;5.00;;;4.00;;
20589;SDS011;10453;50.810;12.540;2022-08-14T13:38:22;4.18;;;3.88;;
20589;SDS011;10453;50.810;12.540;2022-08-14T13:42:43;4.45;;;3.92;;
20589;SDS011;10453;50.810;12.540;2022-08-14T13:47:09;4.90;;;4.50;;
20589;SDS011;10453;50.810;12.540;2022-08-14T13:51:30;5.90;;;4.35;;
20589;SDS011;10453;50.810;12.540;2022-08-14T13:55:53;6.60;;;4.38;;
20589;SDS011;10453;50.810;12.540;2022-08-14T14:00:14;6.68;;;4.32;;
20589;SDS011;10453;50.810;12.540;2022-08-14T14:04:39;6.13;;;4.95;;
20589;SDS011;10453;50.810;12.540;2022-08-14T14:09:02;5.38;;;4.35;;
20589;SDS011;10453;50.810;12.540;2022-08-14T14:13:26;4.88;;;4.57;;
20589;SDS011;10453;50.810;12.540;2022-08-14T14:17:47;5.22;;;4.72;;
20589;SDS011;10453;50.810;12.540;2022-08-14T14:22:05;7.57;;;5.53;;
20589;SDS011;10453;50.810;12.540;2022-08-14T14:26:25;6.22;;;5.63;;
20589;SDS011;10453;50.810;12.540;2022-08-14T14:30:44;6.63;;;5.50;;
20589;SDS011;10453;50.810;12.540;2022-08-14T14:35:10;5.20;;;4.70;;
20589;SDS011;10453;50.810;12.540;2022-08-14T14:39:33;5.43;;;5.03;;
20589;SDS011;10453;50.810;12.540;2022-08-14T14:44:11;5.65;;;4.78;;
20589;SDS011;10453;50.810;12.540;2022-08-14T14:48:31;6.28;;;5.20;;
20589;SDS011;10453;50.810;12.540;2022-08-14T14:52:49;8.33;;;5.20;;
20589;SDS011;10453;50.810;12.540;2022-08-14T14:57:06;5.68;;;5.18;;
20589;SDS011;10453;50.810;12.540;2022-08-14T15:01:36;5.85;;;5.35;;
20589;SDS011;10453;50.810;12.540;2022-08-14T15:05:55;5.70;;;5.20;;
20589;SDS011;10453;50.810;12.540;2022-08-14T15:14:46;5.78;;;5.25;;
20589;SDS011;10453;50.810;12.540;2022-08-14T15:19:13;7.15;;;5.03;;
20589;SDS011;10453;50.810;12.540;2022-08-14T15:23:30;8.55;;;5.57;;
20589;SDS011;10453;50.810;12.540;2022-08-14T15:28:01;6.47;;;4.97;;
20589;SDS011;10453;50.810;12.540;2022-08-14T15:32:20;6.40;;;5.60;;
20589;SDS011;10453;50.810;12.540;2022-08-14T15:40:58;6.75;;;6.13;;
20589;SDS011;10453;50.810;12.540;2022-08-14T15:45:24;6.90;;;6.20;;
20589;SDS011;10453;50.810;12.540;2022-08-14T15:49:42;10.82;;;5.80;;
20589;SDS011;10453;50.810;12.540;2022-08-14T15:54:01;7.47;;;5.97;;
20589;SDS011;10453;50.810;12.540;2022-08-14T15:58:26;9.27;;;5.82;;
20589;SDS011;10453;50.810;12.540;2022-08-14T16:02:44;6.03;;;5.53;;
20589;SDS011;10453;50.810;12.540;2022-08-14T16:07:01;6.30;;;5.67;;
20589;SDS011;10453;50.810;12.540;2022-08-14T16:11:22;6.10;;;5.60;;
20589;SDS011;10453;50.810;12.540;2022-08-14T16:15:40;6.22;;;5.70;;
20589;SDS011;10453;50.810;12.540;2022-08-14T16:20:09;6.10;;;5.60;;
20589;SDS011;10453;50.810;12.540;2022-08-14T16:24:26;7.50;;;6.10;;
20589;SDS011;10453;50.810;12.540;2022-08-14T16:28:49;6.00;;;5.40;;
20589;SDS011;10453;50.810;12.540;2022-08-14T16:33:09;6.13;;;5.53;;
20589;SDS011;10453;50.810;12.540;2022-08-14T16:37:46;6.70;;;5.82;;
20589;SDS011;10453;50.810;12.540;2022-08-14T16:42:05;6.32;;;5.80;;
20589;SDS011;10453;50.810;12.540;2022-08-14T16:46:44;6.20;;;5.70;;
20589;SDS011;10453;50.810;12.540;2022-08-14T16:51:03;6.07;;;5.57;;
20589;SDS011;10453;50.810;12.540;2022-08-14T16:55:22;8.18;;;5.78;;
20589;SDS011;10453;50.810;12.540;2022-08-14T16:59:46;6.30;;;5.70;;
20589;SDS011;10453;50.810;12.540;2022-08-14T17:04:14;8.30;;;5.97;;
20589;SDS011;10453;50.810;12.540;2022-08-14T17:08:41;6.07;;;5.50;;
20589;SDS011;10453;50.810;12.540;2022-08-14T17:13:18;6.38;;;5.55;;
20589;SDS011;10453;50.810;12.540;2022-08-14T17:17:58;6.95;;;6.00;;
20589;SDS011;10453;50.810;12.540;2022-08-14T17:22:15;6.45;;;5.80;;
20589;SDS011;10453;50.810;12.540;2022-08-14T17:26:43;8.13;;;6.03;;
20589;SDS011;10453;50.810;12.540;2022-08-14T17:31:11;6.63;;;6.03;;
20589;SDS011;10453;50.810;12.540;2022-08-14T17:35:30;5.97;;;5.47;;
20589;SDS011;10453;50.810;12.540;2022-08-14T17:44:35;6.30;;;5.68;;
20589;SDS011;10453;50.810;12.540;2022-08-14T17:49:12;9.48;;;5.63;;
20589;SDS011;10453;50.810;12.540;2022-08-14T17:53:33;6.60;;;5.97;;
20589;SDS011;10453;50.810;12.540;2022-08-14T17:58:10;7.18;;;5.80;;
20589;SDS011;10453;50.810;12.540;2022-08-14T18:02:38;8.07;;;5.70;;
20589;SDS011;10453;50.810;12.540;2022-08-14T18:07:10;7.88;;;6.75;;
20589;SDS011;10453;50.810;12.540;2022-08-14T18:11:48;6.43;;;5.82;;
20589;SDS011;10453;50.810;12.540;2022-08-14T18:16:10;6.47;;;5.70;;
20589;SDS011;10453;50.810;12.540;2022-08-14T18:20:38;6.32;;;5.82;;
20589;SDS011;10453;50.810;12.540;2022-08-14T18:25:16;6.53;;;5.80;;
20589;SDS011;10453;50.810;12.540;2022-08-14T18:29:39;8.27;;;6.43;;
20589;SDS011;10453;50.810;12.540;2022-08-14T18:34:17;7.30;;;6.60;;
20589;SDS011;10453;50.810;12.540;2022-08-14T18:38:48;10.35;;;7.18;;
20589;SDS011;10453;50.810;12.540;2022-08-14T18:43:44;7.95;;;7.18;;
20589;SDS011;10453;50.810;12.540;2022-08-14T18:56:55;8.80;;;7.22;;
20589;SDS011;10453;50.810;12.540;2022-08-14T19:01:26;10.80;;;7.05;;
20589;SDS011;10453;50.810;12.540;2022-08-14T19:10:05;8.27;;;7.50;;
20589;SDS011;10453;50.810;12.540;2022-08-14T19:14:43;8.57;;;7.70;;
20589;SDS011;10453;50.810;12.540;2022-08-14T19:19:04;9.75;;;7.90;;
20589;SDS011;10453;50.810;12.540;2022-08-14T19:23:25;8.43;;;7.25;;
20589;SDS011;10453;50.810;12.540;2022-08-14T19:28:13;9.13;;;7.93;;
20589;SDS011;10453;50.810;12.540;2022-08-14T19:32:48;8.40;;;7.53;;
20589;SDS011;10453;50.810;12.540;2022-08-14T19:37:41;8.85;;;7.95;;
20589;SDS011;10453;50.810;12.540;2022-08-14T19:42:10;8.50;;;7.55;;
20589;SDS011;10453;50.810;12.540;2022-08-14T19:46:53;9.13;;;8.23;;
20589;SDS011;10453;50.810;12.540;2022-08-14T19:51:19;11.25;;;8.48;;
20589;SDS011;10453;50.810;12.540;2022-08-14T19:55:38;9.55;;;8.40;;
20589;SDS011;10453;50.810;12.540;2022-08-14T20:00:05;12.40;;;11.10;;
20589;SDS011;10453;50.810;12.540;2022-08-14T20:04:45;19.50;;;16.58;;
20589;SDS011;10453;50.810;12.540;2022-08-14T20:09:13;127.85;;;100.65;;
20589;SDS011;10453;50.810;12.540;2022-08-14T20:13:54;19.27;;;16.85;;
20589;SDS011;10453;50.810;12.540;2022-08-14T20:18:14;10.80;;;9.70;;
20589;SDS011;10453;50.810;12.540;2022-08-14T20:23:07;13.02;;;10.05;;
20589;SDS011;10453;50.810;12.540;2022-08-14T20:31:50;11.70;;;9.05;;
20589;SDS011;10453;50.810;12.540;2022-08-14T20:36:10;12.35;;;10.13;;
20589;SDS011;10453;50.810;12.540;2022-08-14T20:40:43;11.88;;;10.77;;
20589;SDS011;10453;50.810;12.540;2022-08-14T20:45:07;11.35;;;9.60;;
20589;SDS011;10453;50.810;12.540;2022-08-14T20:49:40;13.00;;;9.93;;
20589;SDS011;10453;50.810;12.540;2022-08-14T20:53:59;10.93;;;9.80;;
20589;SDS011;10453;50.810;12.540;2022-08-14T20:58:34;11.93;;;10.63;;
20589;SDS011;10453;50.810;12.540;2022-08-14T21:03:24;11.30;;;9.32;;
20589;SDS011;10453;50.810;12.540;2022-08-14T21:07:44;12.07;;;10.40;;
20589;SDS011;10453;50.810;12.540;2022-08-14T21:12:07;12.15;;;10.48;;
20589;SDS011;10453;50.810;12.540;2022-08-14T21:16:44;12.90;;;10.20;;
20589;SDS011;10453;50.810;12.540;2022-08-14T21:21:16;11.70;;;10.50;;
20589;SDS011;10453;50.810;12.540;2022-08-14T21:25:38;11.55;;;10.45;;
20589;SDS011;10453;50.810;12.540;2022-08-14T21:29:58;11.90;;;10.70;;
20589;SDS011;10453;50.810;12.540;2022-08-14T21:34:17;11.73;;;10.57;;
20589;SDS011;10453;50.810;12.540;2022-08-14T21:38:47;12.50;;;11.20;;
20589;SDS011;10453;50.810;12.540;2022-08-14T21:43:05;12.02;;;10.77;;
20589;SDS011;10453;50.810;12.540;2022-08-14T21:47:34;12.38;;;10.57;;
20589;SDS011;10453;50.810;12.540;2022-08-14T21:51:53;12.10;;;11.00;;
20589;SDS011;10453;50.810;12.540;2022-08-14T21:56:37;13.65;;;10.73;;
20589;SDS011;10453;50.810;12.540;2022-08-14T22:01:13;12.48;;;11.07;;
20589;SDS011;10453;50.810;12.540;2022-08-14T22:05:30;11.10;;;9.95;;
20589;SDS011;10453;50.810;12.540;2022-08-14T22:09:48;12.90;;;11.60;;
20589;SDS011;10453;50.810;12.540;2022-08-14T22:14:11;12.05;;;10.95;;
20589;SDS011;10453;50.810;12.540;2022-08-14T22:18:42;13.05;;;11.85;;
20589;SDS011;10453;50.810;12.540;2022-08-14T22:23:03;13.93;;;11.93;;
20589;SDS011;10453;50.810;12.540;2022-08-14T22:27:24;13.45;;;12.15;;
20589;SDS011;10453;50.810;12.540;2022-08-14T22:31:42;13.50;;;12.13;;
20589;SDS011;10453;50.810;12.540;2022-08-14T22:36:03;13.05;;;11.93;;
20589;SDS011;10453;50.810;12.540;2022-08-14T22:40:42;12.90;;;11.80;;
20589;SDS011;10453;50.810;12.540;2022-08-14T22:45:22;14.65;;;12.63;;
20589;SDS011;10453;50.810;12.540;2022-08-14T22:49:39;12.70;;;11.60;;
20589;SDS011;10453;50.810;12.540;2022-08-14T22:54:16;12.93;;;11.63;;
20589;SDS011;10453;50.810;12.540;2022-08-14T22:58:55;14.80;;;11.65;;
20589;SDS011;10453;50.810;12.540;2022-08-14T23:03:17;12.73;;;11.38;;
20589;SDS011;10453;50.810;12.540;2022-08-14T23:07:35;11.90;;;10.73;;
20589;SDS011;10453;50.810;12.540;2022-08-14T23:12:13;12.82;;;11.63;;
20589;SDS011;10453;50.810;12.540;2022-08-14T23:16:45;13.30;;;12.00;;
20589;SDS011;10453;50.810;12.540;2022-08-14T23:21:07;12.80;;;11.40;;
20589;SDS011;10453;50.810;12.540;2022-08-14T23:25:32;13.05;;;11.77;;
20589;SDS011;10453;50.810;12.540;2022-08-14T23:30:09;14.07;;;12.00;;
20589;SDS011;10453;50.810;12.540;2022-08-14T23:34:50;13.50;;;12.10;;
20589;SDS011;10453;50.810;12.540;2022-08-14T23:39:10;16.70;;;12.20;;
20589;SDS011;10453;50.810;12.540;2022-08-14T23:43:35;12.98;;;11.70;;
20589;SDS011;10453;50.810;12.540;2022-08-14T23:47:58;13.80;;;12.25;;
20589;SDS011;10453;50.810;12.540;2022-08-14T23:52:16;13.70;;;12.40;;
20589;SDS011;10453;50.810;12.540;2022-08-14T23:56:54;12.85;;;11.40;;
